»·PEaware :: N434EP KPSC-KGEG

N434EP :: KPSC-KGEG

FLIGHT INFORMATION

Flight Status: Arrived
Operator: Privately registered:
United States
More flights under this callsign
Pilot: Drew H. (3199)
Aircraft: BEECH AIRCRAFT BARON
(BE58)
More flights by this aircraft type
Origin: KPSC Tri-Cities
United States
Destination: KGEG Spokane Intl
United States
More flights between these airports :: More routes between these airports
Route: +PSC7 GEG
File this flight plan on PilotEdge
Remarks:
Altitude:
(Current/Filed)
9,000ft
Speed:
(Current/Filed)
150kts
Departed: 09-Feb-19 08:09 PM
Arrived: 09-Feb-19 08:54 PM
Distance/Time
Traveled:
104nm/0:45
Distance/Time
To Go:
Arrived

Flight Plot

Page will automatically refresh every two minutes.

Flight plan parsing failed; only flown route is shown


Map Options




Map Legend


Flown Route
Filed Route
Departure Airport
Arrival Airport
Navaid (VOR, NDB)
Fix

Horizontal Profiles

Position Reports

Time Latitude Longitude Heading Altitude Ground
Speed
09-Feb-19 19:52 46.260419 -119.116670 337 414ft 0kts
09-Feb-19 19:53 46.260419 -119.116670 337 414ft 0kts
09-Feb-19 19:54 46.260419 -119.116670 337 414ft 0kts
09-Feb-19 19:55 46.260419 -119.116670 337 414ft 0kts
09-Feb-19 19:56 46.260419 -119.116670 337 414ft 0kts
09-Feb-19 19:57 46.260419 -119.116670 337 414ft 0kts
09-Feb-19 19:58 46.260419 -119.116670 337 414ft 0kts
09-Feb-19 19:59 46.260419 -119.116670 337 414ft 0kts
09-Feb-19 20:00 46.260419 -119.116670 337 414ft 0kts
09-Feb-19 20:01 46.260419 -119.116670 337 414ft 0kts
09-Feb-19 20:02 46.260419 -119.116670 337 414ft 0kts
09-Feb-19 20:03 46.260419 -119.116670 337 414ft 0kts
09-Feb-19 20:04 46.260478 -119.116694 346 414ft 4kts
09-Feb-19 20:05 46.261020 -119.112629 134 414ft 18kts
09-Feb-19 20:06 46.257797 -119.107765 62 414ft 4kts
09-Feb-19 20:07 46.257868 -119.107626 44 414ft 0kts
09-Feb-19 20:08 46.264200 -119.115046 321 480ft 100kts
09-Feb-19 20:09 46.284310 -119.149048 314 1803ft 111kts
09-Feb-19 20:11 46.302989 -119.183156 323 3142ft 106kts
09-Feb-19 20:12 46.329279 -119.172926 20 4366ft 104kts
09-Feb-19 20:13 46.357004 -119.158188 20 5508ft 111kts
09-Feb-19 20:14 46.381957 -119.131446 40 6556ft 116kts
09-Feb-19 20:15 46.407338 -119.099786 41 7414ft 124kts
09-Feb-19 20:16 46.433829 -119.066869 42 8224ft 125kts
09-Feb-19 20:17 46.460375 -119.033976 43 8947ft 126kts
09-Feb-19 20:18 46.490187 -118.997016 44 8981ft 148kts
09-Feb-19 20:19 46.521838 -118.957681 44 8980ft 151kts
09-Feb-19 20:20 46.553823 -118.917951 45 8979ft 151kts
09-Feb-19 20:21 46.585891 -118.878032 46 8979ft 152kts
09-Feb-19 20:22 46.618394 -118.837553 47 8980ft 155kts
09-Feb-19 20:23 46.653311 -118.793544 40 8985ft 179kts
09-Feb-19 20:24 46.692501 -118.744912 42 8962ft 188kts
09-Feb-19 20:25 46.732185 -118.695291 43 8943ft 188kts
09-Feb-19 20:26 46.771615 -118.645749 42 8946ft 187kts
09-Feb-19 20:27 46.810982 -118.596207 47 8963ft 182kts
09-Feb-19 20:28 46.847747 -118.550023 48 8975ft 169kts
09-Feb-19 20:29 46.883030 -118.505460 48 8980ft 166kts
09-Feb-19 20:29 46.912057 -118.468669 47 8966ft 165kts
09-Feb-19 20:31 46.952513 -118.417385 46 8949ft 163kts
09-Feb-19 20:32 46.986694 -118.373989 45 8941ft 161kts
09-Feb-19 20:32 47.013681 -118.339534 45 8940ft 159kts
09-Feb-19 20:33 47.046769 -118.296718 44 8943ft 157kts
09-Feb-19 20:34 47.079734 -118.254537 44 8944ft 157kts
09-Feb-19 20:35 47.111855 -118.213583 43 8944ft 157kts
09-Feb-19 20:36 47.144886 -118.171602 44 8944ft 157kts
09-Feb-19 20:37 47.177793 -118.129323 44 8776ft 158kts
09-Feb-19 20:38 47.210413 -118.087452 43 7956ft 150kts
09-Feb-19 20:39 47.241193 -118.047801 43 7236ft 145kts
09-Feb-19 20:40 47.271364 -118.008891 43 6521ft 143kts
09-Feb-19 20:41 47.301122 -117.970469 42 5818ft 141kts
09-Feb-19 20:42 47.330533 -117.932442 42 5127ft 140kts
09-Feb-19 20:43 47.360966 -117.893008 41 4536ft 147kts
09-Feb-19 20:44 47.391753 -117.853081 41 3988ft 147kts
09-Feb-19 20:45 47.421527 -117.814477 41 3910ft 145kts
09-Feb-19 20:46 47.452758 -117.773809 41 3907ft 151kts
09-Feb-19 20:47 47.484173 -117.732900 41 3906ft 149kts
09-Feb-19 20:48 47.515310 -117.691997 45 3895ft 148kts
09-Feb-19 20:49 47.543589 -117.649323 44 3786ft 140kts
09-Feb-19 20:50 47.569590 -117.611019 44 3535ft 118kts
09-Feb-19 20:51 47.590066 -117.580360 45 2896ft 97kts
09-Feb-19 20:52 47.608256 -117.552849 43 2505ft 93kts
09-Feb-19 20:53 47.618058 -117.536084 93 2388ft 11kts
09-Feb-19 20:54 47.620699 -117.530623 44 2388ft 23kts
09-Feb-19 20:55 47.620421 -117.527845 263 2388ft 0kts
09-Feb-19 20:56 47.620422 -117.527844 263 2388ft 0kts
09-Feb-19 20:57 47.620422 -117.527844 263 2388ft 0kts
09-Feb-19 20:58 47.620422 -117.527844 263 2388ft 0kts
09-Feb-19 20:59 47.620422 -117.527844 263 2388ft 0kts
09-Feb-19 21:00 47.620422 -117.527844 263 2388ft 0kts
09-Feb-19 21:01 47.620422 -117.527844 263 2388ft 0kts
09-Feb-19 21:02 47.620422 -117.527844 263 2388ft 0kts
09-Feb-19 21:03 47.620422 -117.527844 263 2388ft 0kts
09-Feb-19 21:04 47.620422 -117.527844 263 2388ft 0kts
09-Feb-19 21:05 47.620422 -117.527844 263 2388ft 0kts
09-Feb-19 21:06 47.620422 -117.527844 263 2388ft 0kts
09-Feb-19 21:07 47.620422 -117.527844 263 2388ft 0kts
09-Feb-19 21:08 47.620422 -117.527844 263 2388ft 0kts

Navigation Log

Ident Type
Flight plan parsing failed, navigation log unavailable